ADDS TAF Data INFO
IDs: Format: Raw Decoded Include METARs

Data at: 1233 UTC 20 Jul 2017

METAR for:MWCR (Grand Cayman/Roberts, --, GC)
Text:MWCR 201200Z 08005KT 9999 FEW018 29/26 Q1016
Temperature: 29.0°C ( 84°F)
Dewpoint: 26.0°C ( 79°F) [RH = 84%]
Pressure (altimeter):30.00 inches Hg (1016.0 mb)
Winds:from the E (80 degrees) at 6 MPH (5 knots; 2.6 m/s)
Visibility:6 or more sm (10+ km)
Ceiling:at least 12,000 feet AGL
Clouds: few clouds at 1800 feet AGL

TAF for:MWCR (Grand Cayman/Roberts, --, GC) issued at 1100 UTC 20 Jul 2017
Text:TAF MWCR 201100Z 2012/2112 09008KT 9999 VCSH FEW016
Forecast period:1200 UTC 20 July 2017 to 1200 UTC 21 July 2017
Forecast type:FROM: standard forecast or significant change
Winds:from the E (90 degrees) at 9 MPH (8 knots; 4.1 m/s)
Visibility:6 or more sm (10+ km)
Ceiling:at least 12,000 feet AGL
Clouds: few clouds at 1600 feet AGL
Weather:VCSH (showers in vicinity)